createdAt,value
2019-01-20T00:08:14.802Z,61.12
2019-01-20T00:14:10.095Z,62.19
2019-01-20T00:22:44.901Z,62.72
2019-01-20T00:33:55.753Z,65.18
2019-01-20T00:36:46.095Z,67.59
2019-01-20T00:45:15.166Z,71.08
2019-01-20T00:50:31.772Z,66.58
2019-01-20T00:53:22.367Z,65.50
2019-01-20T00:59:07.236Z,63.40
2019-01-20T01:04:40.835Z,63.16
2019-01-20T01:07:31.423Z,63.61
2019-01-20T01:16:09.909Z,65.09
2019-01-20T01:19:19.591Z,64.00
2019-01-20T01:22:10.186Z,64.45
2019-01-20T01:25:00.822Z,64.95
2019-01-20T01:36:04.111Z,66.05
2019-01-20T01:44:22.083Z,64.90
2019-01-20T01:50:17.191Z,65.57
2019-01-20T01:55:51.219Z,66.09
2019-01-20T01:58:22.463Z,65.79
2019-01-20T02:01:13.080Z,65.78
2019-01-20T02:04:03.697Z,66.18
2019-01-20T02:06:54.347Z,65.98
2019-01-20T02:09:44.961Z,65.05
2019-01-20T02:12:55.110Z,64.89
2019-01-20T02:18:29.429Z,66.38
2019-01-20T02:21:11.371Z,66.05
2019-01-20T02:29:10.805Z,65.99
2019-01-20T02:32:01.428Z,65.56
2019-01-20T02:34:52.025Z,64.61
2019-01-20T02:40:28.334Z,62.70
2019-01-20T02:43:18.906Z,62.21
2019-01-20T02:46:28.647Z,61.53
2019-01-20T02:49:19.211Z,61.12
2019-01-20T03:00:46.015Z,60.38
2019-01-20T03:12:11.804Z,66.69
2019-01-20T03:14:49.669Z,66.59
2019-01-20T03:17:59.577Z,64.72
2019-01-20T03:23:34.555Z,61.66
2019-01-20T03:29:09.565Z,60.83
2019-01-20T03:32:00.123Z,60.61
2019-01-20T03:37:52.641Z,60.08
2019-01-20T03:40:43.221Z,59.78
2019-01-20T03:49:00.520Z,59.17
2019-01-20T03:51:51.099Z,59.12
2019-01-20T03:54:41.695Z,58.85
2019-01-20T03:57:51.732Z,58.62
2019-01-20T04:00:50.791Z,58.80
2019-01-20T04:06:44.904Z,59.72
2019-01-20T04:12:20.890Z,59.73
2019-01-20T04:15:01.435Z,59.33
2019-01-20T04:17:52.054Z,59.10
2019-01-20T04:20:42.640Z,59.07
2019-01-20T04:23:33.228Z,59.13
2019-01-20T04:26:23.790Z,59.67
2019-01-20T04:29:14.421Z,59.22
2019-01-20T04:32:05.028Z,64.33
2019-01-20T04:37:44.223Z,66.35
2019-01-20T04:40:34.845Z,65.03
2019-01-20T04:43:25.448Z,67.07
2019-01-20T04:59:55.981Z,63.68
2019-01-20T05:02:46.618Z,64.05
2019-01-20T05:05:37.260Z,64.41
2019-01-20T05:11:12.383Z,63.85
2019-01-20T05:13:43.584Z,64.36
2019-01-20T05:21:40.137Z,64.40
2019-01-20T05:24:30.710Z,64.47
2019-01-20T05:27:21.357Z,63.25
2019-01-20T05:30:24.034Z,62.20
2019-01-20T05:35:41.193Z,64.13
2019-01-20T05:38:31.727Z,64.73
2019-01-20T05:41:22.367Z,62.95
2019-01-20T05:44:13.285Z,64.70
2019-01-20T05:47:03.853Z,64.75
2019-01-20T05:49:54.434Z,64.40
2019-01-20T05:58:13.249Z,62.84
2019-01-20T06:01:22.956Z,62.99
2019-01-20T06:04:13.576Z,61.43
2019-01-20T06:07:04.366Z,62.43
2019-01-20T06:09:55.022Z,62.39
2019-01-20T06:12:53.631Z,62.47
2019-01-20T06:15:28.486Z,61.90
2019-01-20T06:18:19.100Z,62.91
2019-01-20T06:23:53.271Z,63.92
2019-01-20T06:27:03.008Z,62.31
2019-01-20T06:29:53.648Z,63.46
2019-01-20T06:38:51.287Z,63.67
2019-01-20T06:47:09.029Z,62.33
2019-01-20T06:49:59.712Z,61.73
2019-01-20T07:04:24.666Z,58.81
2019-01-20T07:07:15.309Z,59.50
2019-01-20T07:10:15.279Z,60.07
2019-01-20T07:13:10.108Z,60.62
2019-01-20T07:21:34.709Z,59.14
2019-01-20T07:32:43.942Z,58.66
2019-01-20T07:35:34.575Z,58.77
2019-01-20T07:41:07.616Z,58.47
2019-01-20T07:44:08.247Z,58.67
2019-01-20T07:52:12.261Z,58.56
2019-01-20T07:58:24.686Z,61.13
2019-01-20T08:01:15.260Z,61.67
2019-01-20T08:16:20.220Z,62.53
2019-01-20T08:27:20.849Z,64.67
2019-01-20T08:30:23.414Z,62.90
2019-01-20T08:33:26.386Z,61.22
2019-01-20T08:35:59.932Z,60.89
2019-01-20T08:38:31.163Z,60.96
2019-01-20T08:41:21.736Z,62.66
2019-01-20T08:47:51.812Z,68.13
2019-01-20T08:50:23.479Z,65.55
2019-01-20T08:53:14.059Z,62.49
2019-01-20T09:04:29.068Z,59.49
2019-01-20T09:07:01.005Z,59.63
2019-01-20T09:09:51.587Z,59.31
2019-01-20T09:15:37.865Z,63.16
2019-01-20T09:18:11.648Z,63.48
2019-01-20T09:24:04.224Z,61.19
2019-01-20T09:32:21.248Z,56.62
2019-01-20T09:35:31.005Z,55.37
2019-01-20T09:41:05.218Z,56.86
2019-01-20T09:43:47.588Z,56.18
2019-01-20T09:46:29.968Z,57.26
2019-01-20T09:49:01.235Z,59.53
2019-01-20T09:51:51.814Z,61.34
2019-01-20T09:54:42.462Z,63.46
2019-01-20T09:57:52.535Z,61.77
2019-01-20T10:03:26.340Z,60.37
2019-01-20T10:05:57.649Z,59.81
2019-01-20T10:08:48.239Z,58.22
2019-01-20T10:11:38.915Z,56.73
2019-01-20T10:14:29.542Z,57.80
2019-01-20T10:17:21.039Z,58.32
2019-01-20T10:23:31.602Z,55.47
2019-01-20T10:26:04.522Z,54.71
2019-01-20T10:31:37.650Z,57.57
2019-01-20T10:37:13.580Z,66.06
2019-01-20T10:40:15.753Z,66.45
2019-01-20T10:42:48.523Z,66.56
2019-01-20T10:48:21.713Z,64.02
2019-01-20T10:51:12.345Z,62.81
2019-01-20T10:54:02.987Z,60.27
2019-01-20T10:56:53.590Z,60.53
2019-01-20T11:05:24.866Z,58.73
2019-01-20T11:07:57.535Z,58.39
2019-01-20T11:10:48.139Z,57.49
2019-01-20T11:13:38.811Z,56.14
2019-01-20T11:22:15.575Z,61.47
2019-01-20T11:25:18.148Z,61.71
2019-01-20T11:36:01.851Z,60.10
2019-01-20T11:38:52.519Z,56.45
2019-01-20T11:41:43.108Z,57.61
2019-01-20T11:44:52.806Z,54.79
2019-01-20T11:48:02.539Z,53.35
2019-01-20T11:50:53.176Z,56.83
2019-01-20T11:53:44.054Z,56.83
2019-01-20T11:56:34.768Z,59.77
2019-01-20T11:59:36.487Z,59.98
2019-01-20T12:02:09.926Z,60.38
2019-01-20T12:05:00.606Z,61.75
2019-01-20T12:07:51.215Z,62.10
2019-01-20T12:10:41.885Z,59.84
2019-01-20T12:13:51.610Z,58.50
2019-01-20T12:16:44.515Z,57.02
2019-01-20T12:22:17.910Z,58.11
2019-01-20T12:25:20.420Z,59.61
2019-01-20T12:31:07.489Z,58.76
2019-01-20T12:33:40.109Z,62.24
2019-01-20T12:36:30.902Z,62.67
2019-01-20T12:39:40.480Z,63.33
2019-01-20T12:45:26.488Z,60.97
2019-01-20T12:47:58.018Z,59.33
2019-01-20T12:50:48.619Z,56.74
2019-01-20T12:53:39.240Z,54.36
2019-01-20T12:56:48.888Z,57.05
2019-01-20T12:59:39.487Z,60.94
2019-01-20T13:02:30.091Z,63.19
2019-01-20T13:05:01.402Z,63.52
2019-01-20T13:07:52.009Z,66.22
2019-01-20T13:10:35.684Z,66.56
2019-01-20T13:13:26.286Z,67.75
2019-01-20T13:16:16.945Z,68.02
2019-01-20T13:21:53.029Z,67.43
2019-01-20T13:24:24.309Z,67.75
2019-01-20T13:27:14.906Z,68.42
2019-01-20T13:30:17.467Z,68.15
2019-01-20T13:33:08.069Z,68.88
2019-01-20T13:41:44.919Z,68.65
2019-01-20T13:47:00.184Z,68.61
2019-01-20T13:58:44.398Z,69.57
2019-01-20T14:04:18.339Z,68.96
2019-01-20T14:07:27.870Z,69.44
2019-01-20T14:10:30.381Z,69.17
2019-01-20T14:15:46.475Z,69.48
2019-01-20T14:18:37.161Z,70.03
2019-01-20T14:24:10.665Z,69.85
2019-01-20T14:29:45.570Z,69.75
2019-01-20T14:33:14.651Z,70.13
2019-01-20T14:44:39.780Z,70.57
2019-01-20T14:47:21.594Z,69.99
2019-01-20T14:50:19.056Z,70.54
2019-01-20T14:58:43.595Z,70.09
2019-01-20T15:01:34.193Z,70.15
2019-01-20T15:04:25.551Z,70.05
2019-01-20T15:06:57.633Z,69.57
2019-01-20T15:09:28.910Z,69.90
2019-01-20T15:12:19.590Z,70.04
2019-01-20T15:15:30.343Z,70.00
2019-01-20T15:18:14.022Z,69.70
2019-01-20T15:21:04.650Z,69.93
2019-01-20T15:23:55.643Z,69.77
2019-01-20T15:26:57.265Z,69.93
2019-01-20T15:29:30.726Z,69.71
2019-01-20T15:32:21.381Z,69.57
2019-01-20T15:35:31.094Z,69.86
2019-01-20T15:38:02.388Z,68.78
2019-01-20T15:40:53.028Z,68.36
2019-01-20T15:46:48.230Z,68.62
2019-01-20T15:49:48.762Z,68.77
2019-01-20T15:52:20.798Z,68.69
2019-01-20T15:55:23.082Z,68.86
2019-01-20T15:57:56.848Z,69.18
2019-01-20T16:00:47.528Z,69.16
2019-01-20T16:03:38.184Z,68.87
2019-01-20T16:09:12.714Z,68.84
2019-01-20T16:11:44.034Z,68.42
2019-01-20T16:14:34.675Z,67.80
2019-01-20T16:20:16.951Z,66.98
2019-01-20T16:28:39.111Z,67.07
2019-01-20T16:31:29.846Z,67.55
2019-01-20T16:34:40.094Z,67.34
2019-01-20T16:43:31.143Z,66.99
2019-01-20T16:49:09.778Z,66.70
2019-01-20T16:52:00.369Z,67.43
2019-01-20T16:54:53.541Z,67.00
2019-01-20T16:57:44.179Z,66.54
2019-01-20T17:03:40.202Z,66.43
2019-01-20T17:06:50.269Z,65.87
2019-01-20T17:12:24.704Z,66.09
2019-01-20T17:15:28.016Z,66.30
2019-01-20T17:18:02.585Z,66.74
2019-01-20T17:23:38.440Z,66.33
2019-01-20T17:26:29.108Z,66.51
2019-01-20T17:29:19.719Z,65.87
2019-01-20T17:32:10.305Z,65.43
2019-01-20T17:35:01.576Z,64.39
2019-01-20T17:38:11.908Z,63.58
2019-01-20T17:41:08.749Z,64.64
2019-01-20T17:43:59.424Z,64.52
2019-01-20T17:46:50.603Z,64.52
2019-01-20T17:50:00.790Z,64.05
2019-01-20T17:52:51.397Z,63.40
2019-01-20T17:55:42.499Z,62.96
2019-01-20T17:58:33.261Z,63.43
2019-01-20T18:01:24.613Z,63.79
2019-01-20T18:04:21.008Z,64.86
2019-01-20T18:07:23.174Z,64.45
2019-01-20T18:09:56.381Z,65.07
2019-01-20T18:12:47.201Z,64.29
2019-01-20T18:15:38.397Z,63.39
2019-01-20T18:18:21.341Z,63.05
2019-01-20T18:21:18.384Z,63.76
2019-01-20T18:26:59.836Z,64.65
2019-01-20T18:30:16.909Z,63.62
2019-01-20T18:33:12.770Z,63.83
2019-01-20T18:36:09.693Z,63.14
2019-01-20T18:41:44.659Z,62.20
2019-01-20T18:47:38.641Z,63.67
2019-01-20T18:50:31.305Z,63.32
2019-01-20T18:53:02.648Z,62.66
2019-01-20T18:58:36.772Z,63.52
2019-01-20T19:01:37.462Z,63.73
2019-01-20T19:04:11.959Z,64.23
2019-01-20T19:07:03.271Z,64.55
2019-01-20T19:09:55.919Z,65.46
2019-01-20T19:18:39.595Z,65.75
2019-01-20T19:21:30.178Z,65.07
2019-01-20T19:30:45.798Z,63.86
2019-01-20T19:33:17.168Z,62.05
2019-01-20T19:35:48.417Z,61.11
2019-01-20T19:41:23.114Z,60.15
2019-01-20T19:44:13.688Z,60.75
2019-01-20T19:49:46.947Z,62.72
2019-01-20T19:52:56.964Z,63.44
2019-01-20T19:55:47.555Z,63.60
2019-01-20T19:58:38.134Z,63.52
2019-01-20T20:01:30.953Z,63.16
2019-01-20T20:06:56.929Z,62.71
2019-01-20T20:15:59.952Z,63.90
2019-01-20T20:19:01.468Z,65.26
2019-01-20T20:21:44.287Z,65.81
2019-01-20T20:24:37.364Z,65.64
2019-01-20T20:30:23.407Z,65.91
2019-01-20T20:32:54.658Z,66.23
2019-01-20T20:35:45.318Z,66.77
2019-01-20T20:38:35.926Z,66.70
2019-01-20T20:41:26.529Z,67.02
2019-01-20T20:47:00.084Z,67.13
2019-01-20T20:52:56.020Z,67.72
2019-01-20T20:58:48.867Z,68.24
2019-01-20T21:04:22.224Z,68.21
2019-01-20T21:06:53.459Z,67.97
2019-01-20T21:09:44.039Z,68.33
2019-01-20T21:15:19.240Z,68.40
2019-01-20T21:18:09.840Z,68.54
2019-01-20T21:23:44.181Z,68.32
2019-01-20T21:26:45.852Z,68.29
2019-01-20T21:29:19.320Z,67.66
2019-01-20T21:32:14.506Z,66.83
2019-01-20T21:35:17.026Z,66.16
2019-01-20T21:38:08.425Z,64.77
2019-01-20T21:41:00.861Z,63.96
2019-01-20T21:43:33.284Z,63.30
2019-01-20T21:54:37.529Z,67.67
2019-01-20T21:57:28.149Z,67.88
2019-01-20T22:00:21.101Z,68.40
2019-01-20T22:03:13.358Z,68.77
2019-01-20T22:09:06.255Z,68.90
2019-01-20T22:11:56.873Z,68.77
2019-01-20T22:14:47.482Z,68.79
2019-01-20T22:17:18.742Z,69.03
2019-01-20T22:20:28.494Z,69.18
2019-01-20T22:23:19.151Z,69.10
2019-01-20T22:28:53.631Z,69.35
2019-01-20T22:31:24.882Z,69.52
2019-01-20T22:37:22.591Z,69.50
2019-01-20T22:40:16.179Z,69.34
2019-01-20T22:45:34.652Z,69.29
2019-01-20T22:51:08.589Z,69.79
2019-01-20T22:53:59.234Z,69.96
2019-01-20T22:56:49.871Z,70.26
2019-01-20T23:02:23.761Z,70.54
2019-01-20T23:05:14.977Z,70.67
2019-01-20T23:07:46.671Z,71.16
2019-01-20T23:10:37.298Z,70.97
2019-01-20T23:13:28.008Z,70.15
2019-01-20T23:21:45.961Z,69.20
2019-01-20T23:27:11.790Z,69.42
2019-01-20T23:30:02.386Z,69.76
2019-01-20T23:33:04.452Z,70.24
2019-01-20T23:35:35.947Z,70.11
2019-01-20T23:44:10.987Z,70.25
2019-01-20T23:47:01.595Z,70.45
2019-01-20T23:50:30.498Z,69.92
2019-01-20T23:58:38.009Z,69.92
